Time;durP1;ratioP1;P1;durP2;ratioP2;P2;SDS_P1;SDS_P2;PMS_P1;PMS_P2;Temp;Humidity;BMP_temperature;BMP_pressure;BME280_temperature;BME280_humidity;BME280_pressure;Samples;Min_cycle;Max_cycle;Signal;HPM_P1;HPM_P2
2023/03/11 00:02:18;;;;;;;1.20;0.57;;;7.70;46.30;;;;;;5053967;28;20205;-54
2023/03/11 00:04:43;;;;;;;1.88;0.80;;;7.50;46.70;;;;;;5053649;28;20413;-51
2023/03/11 00:07:10;;;;;;;1.53;0.70;;;7.40;47.60;;;;;;5053851;28;20508;-52
2023/03/11 00:09:36;;;;;;;1.17;0.60;;;7.30;47.80;;;;;;5053828;28;20194;-51
2023/03/11 00:12:02;;;;;;;1.20;0.73;;;7.10;48.40;;;;;;5053802;28;20185;-51
2023/03/11 00:14:28;;;;;;;1.42;0.90;;;7.00;48.40;;;;;;5053497;28;20650;-53
2023/03/11 00:16:54;;;;;;;1.57;1.03;;;6.90;48.50;;;;;;5053651;28;20176;-53
2023/03/11 00:19:20;;;;;;;1.30;0.60;;;6.90;48.90;;;;;;5053320;28;20419;-52
2023/03/11 00:21:46;;;;;;;1.52;0.77;;;6.90;48.50;;;;;;5053841;28;20827;-53
2023/03/11 00:24:11;;;;;;;1.43;0.60;;;6.90;49.30;;;;;;5053294;28;20254;-54
2023/03/11 00:26:37;;;;;;;1.10;0.70;;;6.90;48.80;;;;;;5053597;28;20178;-53
2023/03/11 00:29:03;;;;;;;1.80;0.70;;;6.90;48.90;;;;;;5053713;28;20197;-51
2023/03/11 00:31:29;;;;;;;1.30;0.70;;;6.70;49.00;;;;;;5053449;28;20162;-51
2023/03/11 00:33:56;;;;;;;2.13;0.87;;;6.60;49.60;;;;;;5053404;28;20484;-54
2023/03/11 00:36:35;;;;;;;1.45;0.70;;;6.70;49.40;;;;;;5053243;28;20173;-54
2023/03/11 00:39:05;;;;;;;1.50;0.70;;;6.40;49.90;;;;;;5053331;28;20183;-53
2023/03/11 00:41:34;;;;;;;1.60;0.60;;;6.30;50.90;;;;;;5053325;28;20637;-56
2023/03/11 00:44:00;;;;;;;1.25;0.70;;;6.30;50.90;;;;;;5051729;28;20322;-53
2023/03/11 00:46:27;;;;;;;1.67;0.60;;;6.30;50.90;;;;;;5053210;28;20250;-52
2023/03/11 00:48:53;;;;;;;1.33;0.77;;;6.20;51.30;;;;;;5053022;28;20209;-53
2023/03/11 00:51:18;;;;;;;1.23;0.70;;;6.30;50.80;;;;;;5053150;28;20198;-54
2023/03/11 00:53:45;;;;;;;1.87;1.00;;;6.20;50.70;;;;;;5052721;28;20193;-53
2023/03/11 00:56:12;;;;;;;1.45;0.82;;;6.20;50.50;;;;;;5052985;28;20158;-53
2023/03/11 00:58:40;;;;;;;2.45;0.60;;;6.00;51.00;;;;;;5053134;28;20184;-54
2023/03/11 01:01:17;;;;;;;1.50;1.00;;;5.80;51.60;;;;;;5052925;28;20173;-51
2023/03/11 01:03:44;;;;;;;1.52;0.90;;;5.90;51.70;;;;;;5052539;28;20204;-50
2023/03/11 01:06:10;;;;;;;1.90;0.88;;;5.90;52.10;;;;;;5052704;28;20184;-54
2023/03/11 01:08:36;;;;;;;1.20;0.70;;;5.70;51.70;;;;;;5052782;28;20722;-55
2023/03/11 01:11:03;;;;;;;1.55;0.70;;;5.80;51.50;;;;;;5052635;28;20161;-51
2023/03/11 01:13:29;;;;;;;1.38;0.70;;;5.80;51.10;;;;;;5052417;28;20200;-52
2023/03/11 01:15:55;;;;;;;1.30;0.88;;;5.80;51.00;;;;;;5052597;28;20535;-54
2023/03/11 01:18:22;;;;;;;1.50;0.90;;;5.80;50.60;;;;;;5052620;28;20169;-54
2023/03/11 01:20:48;;;;;;;1.25;0.70;;;5.90;50.20;;;;;;5052457;28;20400;-51
2023/03/11 01:23:15;;;;;;;1.45;0.90;;;5.90;50.20;;;;;;5052247;28;20643;-53
2023/03/11 01:25:41;;;;;;;1.48;0.70;;;6.10;50.00;;;;;;5052358;28;20978;-52
2023/03/11 01:28:07;;;;;;;1.17;0.73;;;6.20;49.00;;;;;;5052502;28;20232;-53
2023/03/11 01:30:34;;;;;;;1.55;0.85;;;6.10;49.00;;;;;;5051733;28;20245;-53
2023/03/11 01:33:01;;;;;;;1.15;0.88;;;5.80;49.50;;;;;;5052180;28;20169;-52
2023/03/11 01:35:28;;;;;;;1.27;0.80;;;5.80;49.80;;;;;;5052249;28;20322;-54
2023/03/11 01:37:55;;;;;;;1.65;1.02;;;5.60;50.00;;;;;;5052240;28;20176;-54
2023/03/11 01:40:25;;;;;;;1.70;0.95;;;5.60;49.70;;;;;;5052226;28;20306;-52
2023/03/11 01:42:50;;;;;;;1.33;0.65;;;5.70;49.70;;;;;;5052064;28;20205;-54
2023/03/11 01:45:39;;;;;;;1.27;0.77;;;5.70;49.90;;;;;;5052091;28;20227;-51
2023/03/11 01:48:05;;;;;;;1.65;0.82;;;5.70;49.70;;;;;;5052097;28;20556;-54
2023/03/11 01:50:39;;;;;;;1.63;1.15;;;5.70;49.90;;;;;;5051872;28;20207;-51
2023/03/11 01:53:05;;;;;;;1.63;0.85;;;5.70;49.50;;;;;;5051863;28;20613;-51
2023/03/11 01:55:32;;;;;;;1.58;1.02;;;5.70;49.50;;;;;;5051946;28;20195;-55
2023/03/11 01:58:01;;;;;;;4.55;1.35;;;5.80;49.10;;;;;;5052109;28;20185;-54
2023/03/11 02:00:27;;;;;;;1.88;1.15;;;5.80;48.90;;;;;;5052018;28;20612;-52
2023/03/11 02:02:56;;;;;;;1.70;1.10;;;5.80;49.10;;;;;;5051691;28;20223;-51
2023/03/11 02:05:23;;;;;;;1.95;1.20;;;5.90;49.10;;;;;;5051803;28;20420;-53
2023/03/11 02:07:51;;;;;;;4.88;1.40;;;5.80;48.80;;;;;;5051815;28;20592;-54
2023/03/11 02:10:17;;;;;;;1.38;1.20;;;5.70;49.00;;;;;;5051896;28;20161;-51
2023/03/11 02:12:45;;;;;;;1.77;1.27;;;5.80;48.90;;;;;;5051802;28;20169;-53
2023/03/11 02:15:12;;;;;;;1.77;1.30;;;5.80;48.60;;;;;;5051649;28;20192;-54
2023/03/11 02:17:39;;;;;;;1.80;1.30;;;5.90;48.70;;;;;;5051697;28;20169;-52
2023/03/11 02:20:27;;;;;;;2.08;1.58;;;5.80;48.70;;;;;;5051818;28;20189;-51
2023/03/11 02:22:56;;;;;;;1.50;0.95;;;5.80;48.90;;;;;;5051618;28;20626;-54
2023/03/11 02:25:41;;;;;;;2.40;1.88;;;5.80;49.00;;;;;;5051720;28;20196;-51
2023/03/11 02:28:11;;;;;;;1.75;1.33;;;5.80;48.90;;;;;;5051562;28;20284;-52
2023/03/11 02:30:40;;;;;;;2.40;1.70;;;5.80;49.00;;;;;;5051704;28;20216;-54
2023/03/11 02:33:07;;;;;;;3.38;1.85;;;5.80;48.60;;;;;;5051400;28;20195;-54
2023/03/11 02:35:32;;;;;;;2.85;1.67;;;5.80;49.00;;;;;;5051637;28;20185;-52
2023/03/11 02:37:58;;;;;;;2.03;1.50;;;5.90;49.00;;;;;;5051731;28;20230;-51
2023/03/11 02:40:26;;;;;;;2.00;1.60;;;5.70;48.80;;;;;;5051679;28;20408;-53
2023/03/11 02:42:59;;;;;;;2.10;1.40;;;5.80;49.10;;;;;;5055504;28;20510;-54
2023/03/11 02:45:26;;;;;;;2.25;1.73;;;5.90;48.90;;;;;;5055490;28;20194;-52
2023/03/11 02:47:56;;;;;;;2.38;1.60;;;5.90;48.80;;;;;;5055246;28;20201;-51
2023/03/11 02:50:24;;;;;;;2.20;1.70;;;5.90;48.40;;;;;;5055667;28;20232;-54
2023/03/11 02:52:50;;;;;;;1.85;1.63;;;5.80;48.60;;;;;;5055211;28;20249;-52
2023/03/11 02:55:17;;;;;;;2.35;1.80;;;5.90;48.30;;;;;;5055071;28;20197;-52
2023/03/11 02:57:44;;;;;;;2.28;1.52;;;5.70;49.00;;;;;;5055506;28;20252;-53
2023/03/11 03:00:13;;;;;;;3.03;2.00;;;5.70;49.20;;;;;;5055225;28;20181;-53
2023/03/11 03:02:40;;;;;;;2.70;1.67;;;5.70;49.50;;;;;;5055094;28;20231;-52
2023/03/11 03:05:07;;;;;;;2.40;1.65;;;4.80;49.10;;;;;;5054938;28;20197;-54
2023/03/11 03:07:33;;;;;;;2.13;1.60;;;5.60;49.50;;;;;;5054929;28;20169;-54
2023/03/11 03:09:59;;;;;;;2.67;1.93;;;5.70;49.80;;;;;;5055291;28;20231;-51
2023/03/11 03:12:24;;;;;;;2.80;1.53;;;5.60;49.90;;;;;;5054997;28;20402;-50
2023/03/11 03:14:50;;;;;;;3.53;1.67;;;5.50;50.30;;;;;;5054677;28;20193;-54
2023/03/11 03:17:16;;;;;;;1.90;1.50;;;5.60;50.40;;;;;;5054815;28;20176;-54
2023/03/11 03:19:42;;;;;;;2.37;1.80;;;5.70;50.40;;;;;;5054833;28;20248;-51
2023/03/11 03:22:07;;;;;;;1.97;1.77;;;5.60;50.20;;;;;;5054783;28;20252;-55
2023/03/11 03:24:33;;;;;;;2.40;1.70;;;5.40;51.00;;;;;;5054405;28;20193;-55
2023/03/11 03:26:59;;;;;;;2.43;2.10;;;5.40;51.30;;;;;;5054650;28;20408;-51
2023/03/11 03:29:25;;;;;;;2.30;1.50;;;5.30;51.30;;;;;;5054544;28;20193;-55
2023/03/11 03:31:50;;;;;;;3.57;2.70;;;5.30;51.60;;;;;;5054576;28;20161;-53
2023/03/11 03:34:16;;;;;;;2.77;1.60;;;5.20;51.90;;;;;;5054369;28;20193;-50
2023/03/11 03:36:42;;;;;;;2.23;2.00;;;5.30;52.00;;;;;;5054438;28;20658;-53
2023/03/11 03:39:07;;;;;;;3.50;2.10;;;5.30;51.60;;;;;;5054442;28;20498;-51
2023/03/11 03:41:33;;;;;;;2.87;2.03;;;5.30;51.50;;;;;;5054450;28;20283;-50
2023/03/11 03:43:59;;;;;;;2.80;2.47;;;5.40;50.90;;;;;;5054074;28;20197;-56
2023/03/11 03:46:25;;;;;;;3.30;2.38;;;5.40;50.80;;;;;;5054237;28;20239;-55
2023/03/11 03:48:51;;;;;;;3.20;2.83;;;5.40;51.50;;;;;;5054264;28;20205;-51
2023/03/11 03:51:17;;;;;;;3.27;2.97;;;5.40;50.80;;;;;;5054176;28;20262;-54
2023/03/11 03:53:45;;;;;;;3.20;2.50;;;5.40;50.70;;;;;;5053404;28;20574;-54
2023/03/11 03:56:14;;;;;;;4.45;3.03;;;5.50;50.60;;;;;;5054389;28;20483;-52
2023/03/11 03:58:40;;;;;;;3.42;2.60;;;5.50;50.50;;;;;;5054074;28;20207;-55
2023/03/11 04:01:06;;;;;;;3.45;2.75;;;5.40;50.50;;;;;;5054068;28;20643;-54
2023/03/11 04:03:34;;;;;;;4.28;3.35;;;5.40;50.60;;;;;;5053781;28;20228;-51
2023/03/11 04:06:14;;;;;;;4.40;3.85;;;5.50;50.40;;;;;;5054076;28;20209;-53
2023/03/11 04:08:40;;;;;;;3.95;2.75;;;5.50;50.50;;;;;;5053848;28;20236;-51
2023/03/11 04:11:06;;;;;;;3.67;3.33;;;5.30;50.90;;;;;;5054049;28;20201;-55
2023/03/11 04:13:32;;;;;;;4.20;3.27;;;5.30;50.90;;;;;;5053568;28;20914;-53
2023/03/11 04:15:57;;;;;;;5.05;3.78;;;5.20;51.00;;;;;;5053624;28;20204;-52
2023/03/11 04:18:23;;;;;;;4.00;3.40;;;5.30;50.80;;;;;;5053678;28;20177;-51
2023/03/11 04:20:49;;;;;;;4.73;3.27;;;5.40;50.60;;;;;;5053687;28;20933;-55
2023/03/11 04:23:15;;;;;;;4.05;3.60;;;5.30;50.60;;;;;;5053439;28;20165;-52
2023/03/11 04:25:41;;;;;;;4.25;3.75;;;5.40;50.60;;;;;;5053582;28;20231;-54
2023/03/11 04:28:07;;;;;;;4.80;4.40;;;5.40;50.60;;;;;;5053618;28;20663;-51
2023/03/11 04:30:33;;;;;;;4.57;3.80;;;5.30;50.80;;;;;;5053489;28;20196;-53
2023/03/11 04:32:58;;;;;;;5.67;4.43;;;5.20;50.90;;;;;;5053143;28;20256;-52
2023/03/11 04:35:24;;;;;;;5.93;4.63;;;5.20;51.50;;;;;;5053359;28;20182;-51
2023/03/11 04:37:50;;;;;;;5.13;4.30;;;5.20;51.20;;;;;;5053307;28;20404;-55
2023/03/11 04:40:16;;;;;;;5.17;4.10;;;5.30;51.00;;;;;;5053328;28;20174;-53
2023/03/11 04:42:42;;;;;;;5.78;4.38;;;5.30;50.90;;;;;;5053207;28;20673;-51
2023/03/11 04:45:09;;;;;;;4.60;3.77;;;5.30;51.00;;;;;;5052952;28;20232;-53
2023/03/11 04:47:35;;;;;;;7.75;5.15;;;5.20;50.90;;;;;;5052898;28;20197;-52
2023/03/11 04:50:01;;;;;;;6.03;4.63;;;5.20;51.30;;;;;;5053151;28;20219;-55
2023/03/11 04:52:27;;;;;;;6.17;4.70;;;5.20;51.10;;;;;;5053062;28;20624;-55
2023/03/11 04:54:52;;;;;;;5.67;4.60;;;5.30;51.00;;;;;;5052781;28;20424;-51
2023/03/11 04:57:18;;;;;;;7.30;4.47;;;5.20;50.90;;;;;;5052945;28;20170;-53
2023/03/11 04:59:44;;;;;;;5.47;4.70;;;5.20;50.80;;;;;;5053144;28;20227;-52
2023/03/11 05:02:09;;;;;;;6.23;4.33;;;5.20;50.80;;;;;;5053071;28;20227;-52
2023/03/11 05:04:35;;;;;;;6.90;5.77;;;5.20;50.80;;;;;;5051531;28;20224;-53
2023/03/11 05:07:01;;;;;;;5.37;4.20;;;5.30;50.80;;;;;;5052813;28;20200;-51
2023/03/11 05:09:27;;;;;;;5.50;4.32;;;5.30;50.60;;;;;;5052806;28;20213;-51
2023/03/11 05:11:53;;;;;;;5.40;4.40;;;5.40;50.30;;;;;;5052740;28;20336;-52
2023/03/11 05:14:19;;;;;;;5.20;4.20;;;5.40;50.80;;;;;;5052356;28;20189;-52
2023/03/11 05:16:44;;;;;;;5.40;4.90;;;5.50;49.70;;;;;;5052526;28;20290;-55
2023/03/11 05:19:33;;;;;;;4.80;4.17;;;5.40;49.50;;;;;;5052674;28;20734;-54
2023/03/11 05:22:01;;;;;;;4.90;4.40;;;5.50;49.70;;;;;;5052384;28;20560;-52
2023/03/11 05:24:27;;;;;;;6.53;4.18;;;5.40;49.20;;;;;;5052346;28;20197;-54
2023/03/11 05:26:54;;;;;;;6.35;5.10;;;5.40;49.30;;;;;;5052393;28;20691;-55
2023/03/11 05:29:20;;;;;;;6.95;5.40;;;5.30;49.60;;;;;;5052208;28;20197;-49
2023/03/11 05:31:46;;;;;;;6.85;5.50;;;5.30;50.40;;;;;;5052563;28;20172;-52
2023/03/11 05:34:12;;;;;;;7.03;5.57;;;5.30;49.50;;;;;;5052035;28;20669;-54
2023/03/11 05:36:38;;;;;;;5.00;4.22;;;5.20;49.50;;;;;;5052308;28;20172;-53
2023/03/11 05:39:04;;;;;;;6.60;4.73;;;5.20;49.50;;;;;;5052242;28;20169;-52
2023/03/11 05:41:30;;;;;;;5.70;4.93;;;5.20;49.30;;;;;;5052251;28;20648;-52
2023/03/11 05:43:56;;;;;;;6.45;5.25;;;5.30;49.80;;;;;;5051809;28;21079;-55
2023/03/11 05:46:22;;;;;;;6.37;5.47;;;5.40;48.30;;;;;;5052250;28;20227;-51
2023/03/11 05:48:47;;;;;;;6.90;5.70;;;5.40;48.20;;;;;;5052036;28;20270;-55
2023/03/11 05:51:13;;;;;;;6.07;4.70;;;5.40;48.10;;;;;;5052239;28;20410;-51
2023/03/11 05:53:47;;;;;;;6.03;5.30;;;5.30;48.10;;;;;;5051729;28;20516;-52
2023/03/11 05:56:13;;;;;;;7.10;5.28;;;5.30;47.60;;;;;;5052045;28;20173;-56
2023/03/11 05:58:39;;;;;;;5.22;4.72;;;5.30;48.10;;;;;;5051932;28;20224;-54
2023/03/11 06:01:12;;;;;;;6.23;4.97;;;5.40;48.10;;;;;;5051973;28;20169;-51
2023/03/11 06:03:39;;;;;;;6.45;5.75;;;5.40;48.00;;;;;;5051773;28;20561;-53
2023/03/11 06:06:07;;;;;;;7.45;6.32;;;5.30;47.90;;;;;;5051998;28;20177;-54
2023/03/11 06:08:34;;;;;;;7.20;5.50;;;5.40;47.70;;;;;;5051877;28;20534;-52
2023/03/11 06:11:05;;;;;;;6.22;5.55;;;5.30;47.30;;;;;;5051825;28;20219;-56
2023/03/11 06:13:31;;;;;;;6.63;5.65;;;5.40;47.60;;;;;;5051586;28;20215;-51
2023/03/11 06:15:57;;;;;;;8.20;5.95;;;5.40;47.40;;;;;;5052833;28;20177;-50
2023/03/11 06:18:25;;;;;;;7.53;6.00;;;5.40;47.50;;;;;;5056046;28;20169;-55
2023/03/11 06:20:56;;;;;;;7.55;5.70;;;5.40;46.80;;;;;;5056042;28;20807;-54
2023/03/11 06:23:23;;;;;;;8.75;6.63;;;5.40;46.90;;;;;;5055675;28;20190;-51
2023/03/11 06:25:55;;;;;;;6.50;5.80;;;5.40;47.20;;;;;;5055790;28;20184;-51
2023/03/11 06:28:21;;;;;;;10.85;7.60;;;5.50;46.90;;;;;;5055653;28;20756;-54
2023/03/11 06:30:47;;;;;;;10.60;8.00;;;5.50;46.90;;;;;;5055855;28;20203;-54
2023/03/11 06:33:13;;;;;;;9.57;7.57;;;5.50;46.90;;;;;;5055566;28;20785;-50
2023/03/11 06:35:40;;;;;;;12.38;7.05;;;5.60;46.70;;;;;;5055752;28;20231;-56
2023/03/11 06:38:06;;;;;;;7.93;6.78;;;5.50;46.60;;;;;;5055528;28;20209;-51
2023/03/11 06:40:33;;;;;;;9.00;7.05;;;5.40;46.50;;;;;;5055746;28;20171;-51
2023/03/11 06:42:59;;;;;;;11.50;8.27;;;5.50;46.60;;;;;;5055283;28;20179;-53
2023/03/11 06:45:25;;;;;;;8.47;7.47;;;5.60;46.50;;;;;;5055456;28;20292;-51
2023/03/11 06:47:50;;;;;;;9.30;7.25;;;5.60;46.00;;;;;;5055315;28;20200;-51
2023/03/11 06:50:16;;;;;;;8.87;6.50;;;5.70;46.10;;;;;;5055451;28;20533;-56
2023/03/11 06:52:42;;;;;;;12.57;8.27;;;5.60;46.00;;;;;;5055200;28;20169;-54
2023/03/11 06:55:08;;;;;;;10.33;7.40;;;5.50;46.20;;;;;;5055064;28;20569;-52
2023/03/11 06:57:34;;;;;;;8.68;7.50;;;5.60;46.90;;;;;;5055369;28;20569;-52
2023/03/11 07:00:00;;;;;;;9.60;7.77;;;5.60;46.20;;;;;;5055293;28;20199;-54
2023/03/11 07:02:25;;;;;;;8.73;7.47;;;5.70;45.90;;;;;;5055289;28;20196;-56
2023/03/11 07:04:51;;;;;;;9.73;7.20;;;5.60;45.60;;;;;;5054797;28;20569;-51
2023/03/11 07:07:17;;;;;;;6.83;6.13;;;5.70;45.80;;;;;;5054945;28;20269;-51
2023/03/11 07:09:43;;;;;;;10.37;8.20;;;5.70;46.00;;;;;;5055172;28;20212;-51
2023/03/11 07:12:09;;;;;;;11.03;6.80;;;5.70;45.60;;;;;;5054933;28;20411;-51
2023/03/11 07:14:35;;;;;;;11.10;7.63;;;5.60;45.60;;;;;;5054672;28;20416;-54
2023/03/11 07:17:01;;;;;;;9.30;7.60;;;5.50;45.70;;;;;;5054926;28;20400;-52
2023/03/11 07:19:26;;;;;;;10.82;8.23;;;5.40;45.70;;;;;;5054838;28;20403;-50
2023/03/11 07:21:52;;;;;;;10.67;7.83;;;5.50;46.00;;;;;;5054671;28;20173;-53
2023/03/11 07:24:18;;;;;;;9.93;7.73;;;5.50;45.70;;;;;;5054548;28;20248;-50
2023/03/11 07:26:43;;;;;;;9.53;6.93;;;5.50;45.80;;;;;;5054419;28;20170;-52
2023/03/11 07:29:09;;;;;;;12.43;8.57;;;5.60;45.80;;;;;;5053675;28;20208;-54
2023/03/11 07:31:35;;;;;;;10.20;6.73;;;5.60;45.60;;;;;;5054973;28;20177;-52
2023/03/11 07:34:04;;;;;;;10.20;7.35;;;5.60;46.00;;;;;;5054339;28;20653;-50
2023/03/11 07:36:31;;;;;;;11.43;8.07;;;5.60;46.10;;;;;;5054396;28;20253;-55
2023/03/11 07:38:59;;;;;;;10.57;8.75;;;5.60;46.10;;;;;;5054556;28;20173;-57
2023/03/11 07:41:26;;;;;;;13.10;7.90;;;5.60;46.30;;;;;;5054590;28;20185;-52
2023/03/11 07:43:56;;;;;;;10.88;8.10;;;5.60;46.30;;;;;;5054076;28;20200;-56
2023/03/11 07:46:23;;;;;;;10.40;8.32;;;5.60;46.10;;;;;;5054298;28;20192;-55
2023/03/11 07:48:50;;;;;;;9.80;7.82;;;5.60;46.40;;;;;;5054256;28;20608;-52
2023/03/11 07:51:22;;;;;;;12.25;8.00;;;5.60;46.10;;;;;;5054285;28;20172;-54
2023/03/11 07:53:48;;;;;;;9.40;8.38;;;5.70;46.00;;;;;;5054091;28;20197;-51
2023/03/11 07:56:15;;;;;;;11.57;7.45;;;5.80;45.60;;;;;;5054144;28;20169;-52
2023/03/11 07:58:42;;;;;;;11.07;8.18;;;5.70;45.60;;;;;;5054187;28;20578;-55
2023/03/11 08:01:11;;;;;;;9.13;7.00;;;5.70;45.60;;;;;;5054063;28;20177;-51
2023/03/11 08:03:37;;;;;;;8.57;7.63;;;5.80;45.60;;;;;;5053884;28;20211;-52
2023/03/11 08:06:14;;;;;;;9.95;6.90;;;5.80;45.00;;;;;;5053986;28;20168;-54
2023/03/11 08:08:40;;;;;;;10.52;7.80;;;5.80;44.80;;;;;;5053866;28;20680;-51
2023/03/11 08:11:06;;;;;;;12.50;8.35;;;5.90;45.00;;;;;;5053895;28;20251;-53
2023/03/11 08:13:32;;;;;;;9.70;6.80;;;5.90;44.40;;;;;;5053708;28;20192;-51
2023/03/11 08:15:58;;;;;;;13.30;8.05;;;5.90;44.60;;;;;;5053709;28;20404;-51
2023/03/11 08:18:24;;;;;;;12.27;8.55;;;5.90;44.50;;;;;;5053776;28;20178;-55
2023/03/11 08:20:50;;;;;;;11.47;7.77;;;5.90;44.50;;;;;;5053744;28;20175;-52
2023/03/11 08:23:15;;;;;;;11.60;8.23;;;6.00;44.60;;;;;;5053412;28;20180;-50
2023/03/11 08:25:41;;;;;;;10.33;8.10;;;6.00;44.50;;;;;;5053645;28;20173;-54
2023/03/11 08:28:08;;;;;;;10.73;8.13;;;6.00;44.60;;;;;;5053813;28;20197;-52
2023/03/11 08:30:34;;;;;;;12.57;8.23;;;6.10;44.60;;;;;;5053675;28;20196;-51
2023/03/11 08:33:00;;;;;;;14.35;8.30;;;6.10;44.50;;;;;;5053248;28;20169;-55
2023/03/11 08:35:26;;;;;;;9.77;8.65;;;6.20;44.50;;;;;;5053409;28;20181;-51
2023/03/11 08:37:52;;;;;;;11.33;8.10;;;6.20;44.60;;;;;;5053376;28;20257;-51
2023/03/11 08:40:18;;;;;;;13.32;9.60;;;6.20;44.60;;;;;;5052992;28;20444;-55
2023/03/11 08:42:44;;;;;;;10.98;8.73;;;6.30;44.70;;;;;;5053220;28;20174;-55
2023/03/11 08:45:10;;;;;;;12.67;8.27;;;6.20;44.40;;;;;;5053177;28;20204;-51
2023/03/11 08:47:38;;;;;;;13.55;9.43;;;6.30;44.60;;;;;;5053088;28;20234;-52
2023/03/11 08:50:07;;;;;;;10.80;8.80;;;6.30;44.60;;;;;;5053224;28;20172;-55
2023/03/11 08:52:33;;;;;;;12.05;9.18;;;6.30;44.80;;;;;;5053319;28;20192;-53
2023/03/11 08:54:59;;;;;;;11.23;8.47;;;6.30;44.60;;;;;;5052742;28;20539;-52
2023/03/11 08:57:24;;;;;;;13.00;9.60;;;6.30;44.60;;;;;;5053052;28;20404;-55
2023/03/11 08:59:50;;;;;;;12.20;9.10;;;6.30;44.70;;;;;;5051681;28;20177;-55
2023/03/11 09:02:16;;;;;;;14.80;8.70;;;6.30;44.70;;;;;;5052838;28;20590;-51
2023/03/11 09:04:42;;;;;;;11.10;9.10;;;6.30;44.40;;;;;;5052593;28;20189;-55
2023/03/11 09:07:10;;;;;;;11.47;7.60;;;6.30;45.10;;;;;;5052816;28;20208;-55
2023/03/11 09:09:35;;;;;;;13.20;8.85;;;6.30;44.40;;;;;;5052615;28;20212;-50
2023/03/11 09:12:01;;;;;;;11.63;8.30;;;6.20;44.80;;;;;;5052790;28;20174;-52
2023/03/11 09:14:27;;;;;;;11.63;8.70;;;6.20;44.90;;;;;;5052356;28;20193;-54
2023/03/11 09:16:52;;;;;;;9.10;7.77;;;6.20;44.70;;;;;;5052629;28;20692;-53
2023/03/11 09:19:19;;;;;;;11.23;8.40;;;6.20;45.00;;;;;;5052585;28;20192;-51
2023/03/11 09:21:44;;;;;;;8.65;7.43;;;6.20;45.00;;;;;;5052514;28;20174;-51
2023/03/11 09:24:10;;;;;;;11.47;8.70;;;6.20;44.90;;;;;;5052189;28;20185;-54
2023/03/11 09:26:36;;;;;;;9.67;8.00;;;6.20;44.90;;;;;;5052498;28;20173;-52
2023/03/11 09:29:01;;;;;;;12.87;8.80;;;6.20;44.90;;;;;;5052265;28;20192;-54
2023/03/11 09:31:27;;;;;;;10.60;7.67;;;6.10;45.20;;;;;;5052756;28;20184;-51
2023/03/11 09:33:55;;;;;;;12.87;8.40;;;6.10;45.40;;;;;;5052110;28;20181;-50
2023/03/11 09:36:21;;;;;;;12.57;9.77;;;6.00;45.40;;;;;;5052529;28;20256;-55
2023/03/11 09:38:47;;;;;;;12.63;8.95;;;6.00;45.50;;;;;;5052270;28;20329;-51
2023/03/11 09:41:16;;;;;;;10.52;9.43;;;5.90;45.70;;;;;;5052340;28;20177;-56
2023/03/11 09:44:02;;;;;;;13.23;8.55;;;6.00;45.80;;;;;;5051853;28;20608;-55
2023/03/11 09:46:49;;;;;;;9.90;8.85;;;5.90;45.80;;;;;;5052057;28;20207;-51
2023/03/11 09:49:24;;;;;;;10.73;8.85;;;5.90;45.90;;;;;;5052184;28;20197;-55
2023/03/11 09:52:08;;;;;;;10.63;8.75;;;5.90;46.60;;;;;;5051413;28;20176;-51
2023/03/11 09:54:39;;;;;;;19.23;8.93;;;6.00;46.00;;;;;;5051979;28;20230;-50
2023/03/11 09:57:08;;;;;;;15.98;9.23;;;5.90;46.10;;;;;;5052101;28;20153;-54
2023/03/11 09:59:37;;;;;;;10.68;8.18;;;6.00;45.90;;;;;;5051970;28;20172;-51
2023/03/11 10:02:04;;;;;;;14.40;8.70;;;6.00;46.60;;;;;;5052237;28;20183;-53
